sensor_id;sensor_type;location;lat;lon;timestamp;P1;durP1;ratioP1;P2;durP2;ratioP2
36651;SDS011;53334;51.976;20.144;2022-09-27T00:01:59;10.48;;;8.48;;
36651;SDS011;53334;51.976;20.144;2022-09-27T00:04:33;11.63;;;8.70;;
36651;SDS011;53334;51.976;20.144;2022-09-27T00:07:07;12.18;;;8.90;;
36651;SDS011;53334;51.976;20.144;2022-09-27T00:09:43;11.13;;;9.00;;
36651;SDS011;53334;51.976;20.144;2022-09-27T00:12:17;12.70;;;8.45;;
36651;SDS011;53334;51.976;20.144;2022-09-27T00:14:51;12.30;;;9.13;;
36651;SDS011;53334;51.976;20.144;2022-09-27T00:17:25;12.55;;;9.90;;
36651;SDS011;53334;51.976;20.144;2022-09-27T00:19:59;11.40;;;9.57;;
36651;SDS011;53334;51.976;20.144;2022-09-27T00:22:34;10.70;;;9.40;;
36651;SDS011;53334;51.976;20.144;2022-09-27T00:25:10;11.57;;;10.48;;
36651;SDS011;53334;51.976;20.144;2022-09-27T00:27:44;10.35;;;9.25;;
36651;SDS011;53334;51.976;20.144;2022-09-27T00:30:18;13.57;;;10.20;;
36651;SDS011;53334;51.976;20.144;2022-09-27T00:32:52;11.43;;;9.45;;
36651;SDS011;53334;51.976;20.144;2022-09-27T00:35:26;11.63;;;10.43;;
36651;SDS011;53334;51.976;20.144;2022-09-27T00:38:00;17.73;;;10.60;;
36651;SDS011;53334;51.976;20.144;2022-09-27T00:40:36;12.98;;;10.40;;
36651;SDS011;53334;51.976;20.144;2022-09-27T00:43:13;12.93;;;10.52;;
36651;SDS011;53334;51.976;20.144;2022-09-27T00:45:50;14.15;;;9.18;;
36651;SDS011;53334;51.976;20.144;2022-09-27T00:48:28;11.05;;;9.90;;
36651;SDS011;53334;51.976;20.144;2022-09-27T00:51:04;10.30;;;8.38;;
36651;SDS011;53334;51.976;20.144;2022-09-27T00:53:42;14.88;;;11.20;;
36651;SDS011;53334;51.976;20.144;2022-09-27T00:56:24;14.32;;;10.82;;
36651;SDS011;53334;51.976;20.144;2022-09-27T00:59:02;12.73;;;11.10;;
36651;SDS011;53334;51.976;20.144;2022-09-27T01:01:41;12.77;;;9.88;;
36651;SDS011;53334;51.976;20.144;2022-09-27T01:04:17;12.50;;;10.60;;
36651;SDS011;53334;51.976;20.144;2022-09-27T01:06:55;12.82;;;11.20;;
36651;SDS011;53334;51.976;20.144;2022-09-27T01:09:29;15.55;;;11.80;;
36651;SDS011;53334;51.976;20.144;2022-09-27T01:12:06;14.60;;;11.00;;
36651;SDS011;53334;51.976;20.144;2022-09-27T01:14:57;11.65;;;10.45;;
36651;SDS011;53334;51.976;20.144;2022-09-27T01:17:43;14.77;;;10.35;;
36651;SDS011;53334;51.976;20.144;2022-09-27T01:20:38;11.77;;;10.48;;
36651;SDS011;53334;51.976;20.144;2022-09-27T01:23:46;13.48;;;9.65;;
36651;SDS011;53334;51.976;20.144;2022-09-27T01:26:56;12.50;;;10.77;;
36651;SDS011;53334;51.976;20.144;2022-09-27T01:29:53;11.57;;;10.38;;
36651;SDS011;53334;51.976;20.144;2022-09-27T01:32:39;13.88;;;10.32;;
36651;SDS011;53334;51.976;20.144;2022-09-27T01:35:24;11.95;;;10.73;;
36651;SDS011;53334;51.976;20.144;2022-09-27T01:38:10;14.73;;;10.02;;
36651;SDS011;53334;51.976;20.144;2022-09-27T01:40:49;12.23;;;10.52;;
36651;SDS011;53334;51.976;20.144;2022-09-27T01:43:53;12.25;;;9.65;;
36651;SDS011;53334;51.976;20.144;2022-09-27T01:46:36;11.82;;;10.25;;
36651;SDS011;53334;51.976;20.144;2022-09-27T01:49:33;11.98;;;9.35;;
36651;SDS011;53334;51.976;20.144;2022-09-27T01:52:11;14.95;;;9.77;;
36651;SDS011;53334;51.976;20.144;2022-09-27T01:54:53;12.02;;;9.63;;
36651;SDS011;53334;51.976;20.144;2022-09-27T01:57:42;10.93;;;9.55;;
36651;SDS011;53334;51.976;20.144;2022-09-27T02:00:27;11.35;;;9.52;;
36651;SDS011;53334;51.976;20.144;2022-09-27T02:03:03;10.90;;;9.63;;
36651;SDS011;53334;51.976;20.144;2022-09-27T02:05:44;14.10;;;10.20;;
36651;SDS011;53334;51.976;20.144;2022-09-27T02:08:44;11.23;;;9.65;;
36651;SDS011;53334;51.976;20.144;2022-09-27T02:11:49;13.82;;;11.00;;
36651;SDS011;53334;51.976;20.144;2022-09-27T02:14:30;13.85;;;10.63;;
36651;SDS011;53334;51.976;20.144;2022-09-27T02:17:08;14.63;;;10.35;;
36651;SDS011;53334;51.976;20.144;2022-09-27T02:19:53;13.65;;;10.10;;
36651;SDS011;53334;51.976;20.144;2022-09-27T02:22:46;10.93;;;9.75;;
36651;SDS011;53334;51.976;20.144;2022-09-27T02:25:25;10.63;;;9.52;;
36651;SDS011;53334;51.976;20.144;2022-09-27T02:28:07;11.35;;;9.63;;
36651;SDS011;53334;51.976;20.144;2022-09-27T02:30:46;12.48;;;9.98;;
36651;SDS011;53334;51.976;20.144;2022-09-27T02:33:27;11.00;;;9.80;;
36651;SDS011;53334;51.976;20.144;2022-09-27T02:36:05;11.98;;;9.90;;
36651;SDS011;53334;51.976;20.144;2022-09-27T02:38:41;10.07;;;9.05;;
36651;SDS011;53334;51.976;20.144;2022-09-27T02:41:19;13.05;;;9.93;;
36651;SDS011;53334;51.976;20.144;2022-09-27T02:43:55;12.63;;;9.15;;
36651;SDS011;53334;51.976;20.144;2022-09-27T02:46:39;10.73;;;9.65;;
36651;SDS011;53334;51.976;20.144;2022-09-27T02:49:37;11.55;;;9.50;;
36651;SDS011;53334;51.976;20.144;2022-09-27T02:52:44;10.75;;;9.00;;
36651;SDS011;53334;51.976;20.144;2022-09-27T02:55:40;11.80;;;9.98;;
36651;SDS011;53334;51.976;20.144;2022-09-27T02:58:49;10.07;;;9.07;;
36651;SDS011;53334;51.976;20.144;2022-09-27T03:01:46;11.13;;;9.75;;
36651;SDS011;53334;51.976;20.144;2022-09-27T03:04:33;11.70;;;9.23;;
36651;SDS011;53334;51.976;20.144;2022-09-27T03:07:11;11.25;;;10.05;;
36651;SDS011;53334;51.976;20.144;2022-09-27T03:09:47;10.32;;;9.02;;
36651;SDS011;53334;51.976;20.144;2022-09-27T03:12:25;9.30;;;8.40;;
36651;SDS011;53334;51.976;20.144;2022-09-27T03:14:59;10.10;;;9.05;;
36651;SDS011;53334;51.976;20.144;2022-09-27T03:18:00;10.40;;;9.40;;
36651;SDS011;53334;51.976;20.144;2022-09-27T03:20:53;11.32;;;9.32;;
36651;SDS011;53334;51.976;20.144;2022-09-27T03:23:29;11.27;;;9.50;;
36651;SDS011;53334;51.976;20.144;2022-09-27T03:26:03;11.00;;;9.90;;
36651;SDS011;53334;51.976;20.144;2022-09-27T03:28:45;9.30;;;8.40;;
36651;SDS011;53334;51.976;20.144;2022-09-27T03:31:19;10.32;;;9.32;;
36651;SDS011;53334;51.976;20.144;2022-09-27T03:34:19;10.27;;;9.18;;
36651;SDS011;53334;51.976;20.144;2022-09-27T03:36:54;11.45;;;9.45;;
36651;SDS011;53334;51.976;20.144;2022-09-27T03:39:28;14.13;;;9.32;;
36651;SDS011;53334;51.976;20.144;2022-09-27T03:42:02;10.68;;;9.57;;
36651;SDS011;53334;51.976;20.144;2022-09-27T03:44:38;11.52;;;9.65;;
36651;SDS011;53334;51.976;20.144;2022-09-27T03:47:12;10.32;;;8.95;;
36651;SDS011;53334;51.976;20.144;2022-09-27T03:49:47;9.93;;;8.93;;
36651;SDS011;53334;51.976;20.144;2022-09-27T03:52:21;12.18;;;9.27;;
36651;SDS011;53334;51.976;20.144;2022-09-27T03:54:55;10.73;;;9.63;;
36651;SDS011;53334;51.976;20.144;2022-09-27T03:57:34;9.80;;;8.60;;
36651;SDS011;53334;51.976;20.144;2022-09-27T04:00:10;10.07;;;9.07;;
36651;SDS011;53334;51.976;20.144;2022-09-27T04:02:45;9.27;;;8.32;;
36651;SDS011;53334;51.976;20.144;2022-09-27T04:05:28;8.90;;;8.00;;
36651;SDS011;53334;51.976;20.144;2022-09-27T04:08:15;11.38;;;9.30;;
36651;SDS011;53334;51.976;20.144;2022-09-27T04:10:49;11.25;;;9.00;;
36651;SDS011;53334;51.976;20.144;2022-09-27T04:13:23;8.70;;;7.90;;
36651;SDS011;53334;51.976;20.144;2022-09-27T04:16:01;10.63;;;8.85;;
36651;SDS011;53334;51.976;20.144;2022-09-27T04:18:57;9.98;;;8.65;;
36651;SDS011;53334;51.976;20.144;2022-09-27T04:21:57;9.52;;;8.52;;
36651;SDS011;53334;51.976;20.144;2022-09-27T04:24:31;10.82;;;9.45;;
36651;SDS011;53334;51.976;20.144;2022-09-27T04:27:23;10.60;;;8.40;;
36651;SDS011;53334;51.976;20.144;2022-09-27T04:29:57;10.77;;;7.88;;
36651;SDS011;53334;51.976;20.144;2022-09-27T04:32:52;10.10;;;9.10;;
36651;SDS011;53334;51.976;20.144;2022-09-27T04:35:49;9.60;;;8.63;;
36651;SDS011;53334;51.976;20.144;2022-09-27T04:38:44;10.75;;;9.02;;
36651;SDS011;53334;51.976;20.144;2022-09-27T04:41:23;10.80;;;8.48;;
36651;SDS011;53334;51.976;20.144;2022-09-27T04:43:59;11.25;;;10.05;;
36651;SDS011;53334;51.976;20.144;2022-09-27T04:46:34;9.60;;;8.60;;
36651;SDS011;53334;51.976;20.144;2022-09-27T04:49:09;8.77;;;7.93;;
36651;SDS011;53334;51.976;20.144;2022-09-27T04:51:43;9.63;;;7.68;;
36651;SDS011;53334;51.976;20.144;2022-09-27T04:54:18;8.90;;;8.00;;
36651;SDS011;53334;51.976;20.144;2022-09-27T04:57:01;8.95;;;8.05;;
36651;SDS011;53334;51.976;20.144;2022-09-27T04:59:36;10.77;;;8.88;;
36651;SDS011;53334;51.976;20.144;2022-09-27T05:02:11;12.82;;;8.63;;
36651;SDS011;53334;51.976;20.144;2022-09-27T05:05:05;9.52;;;8.38;;
36651;SDS011;53334;51.976;20.144;2022-09-27T05:07:43;11.07;;;9.10;;
36651;SDS011;53334;51.976;20.144;2022-09-27T05:10:29;11.10;;;9.98;;
36651;SDS011;53334;51.976;20.144;2022-09-27T05:13:03;12.88;;;11.43;;
36651;SDS011;53334;51.976;20.144;2022-09-27T05:15:37;11.15;;;10.05;;
36651;SDS011;53334;51.976;20.144;2022-09-27T05:18:33;16.88;;;12.23;;
36651;SDS011;53334;51.976;20.144;2022-09-27T05:24:03;17.42;;;14.02;;
36651;SDS011;53334;51.976;20.144;2022-09-27T05:26:38;16.90;;;14.07;;
36651;SDS011;53334;51.976;20.144;2022-09-27T05:29:12;20.25;;;13.55;;
36651;SDS011;53334;51.976;20.144;2022-09-27T05:31:52;16.92;;;14.10;;
36651;SDS011;53334;51.976;20.144;2022-09-27T05:34:26;17.63;;;13.63;;
36651;SDS011;53334;51.976;20.144;2022-09-27T05:37:04;28.27;;;15.25;;
36651;SDS011;53334;51.976;20.144;2022-09-27T05:39:42;18.80;;;14.43;;
36651;SDS011;53334;51.976;20.144;2022-09-27T05:42:17;20.05;;;15.57;;
36651;SDS011;53334;51.976;20.144;2022-09-27T05:44:52;19.08;;;14.82;;
36651;SDS011;53334;51.976;20.144;2022-09-27T05:47:27;19.25;;;16.77;;
36651;SDS011;53334;51.976;20.144;2022-09-27T05:50:01;23.63;;;16.17;;
36651;SDS011;53334;51.976;20.144;2022-09-27T05:52:38;20.30;;;16.55;;
36651;SDS011;53334;51.976;20.144;2022-09-27T05:55:12;21.30;;;16.73;;
36651;SDS011;53334;51.976;20.144;2022-09-27T05:57:54;22.35;;;16.83;;
36651;SDS011;53334;51.976;20.144;2022-09-27T06:00:36;21.60;;;15.95;;
36651;SDS011;53334;51.976;20.144;2022-09-27T06:03:30;26.58;;;17.80;;
36651;SDS011;53334;51.976;20.144;2022-09-27T06:06:23;25.13;;;17.60;;
36651;SDS011;53334;51.976;20.144;2022-09-27T06:09:02;22.70;;;16.23;;
36651;SDS011;53334;51.976;20.144;2022-09-27T06:11:36;27.50;;;16.77;;
36651;SDS011;53334;51.976;20.144;2022-09-27T06:14:17;21.73;;;17.20;;
36651;SDS011;53334;51.976;20.144;2022-09-27T06:17:17;21.38;;;17.60;;
36651;SDS011;53334;51.976;20.144;2022-09-27T06:19:52;22.17;;;16.55;;
36651;SDS011;53334;51.976;20.144;2022-09-27T06:22:26;30.27;;;15.45;;
36651;SDS011;53334;51.976;20.144;2022-09-27T06:25:05;23.55;;;16.60;;
36651;SDS011;53334;51.976;20.144;2022-09-27T06:27:52;25.45;;;17.30;;
36651;SDS011;53334;51.976;20.144;2022-09-27T06:30:30;29.27;;;16.77;;
36651;SDS011;53334;51.976;20.144;2022-09-27T06:33:12;23.58;;;16.45;;
36651;SDS011;53334;51.976;20.144;2022-09-27T06:35:53;26.75;;;16.38;;
36651;SDS011;53334;51.976;20.144;2022-09-27T06:38:28;18.30;;;15.60;;
36651;SDS011;53334;51.976;20.144;2022-09-27T06:41:12;22.70;;;16.77;;
36651;SDS011;53334;51.976;20.144;2022-09-27T06:44:06;23.92;;;15.80;;
36651;SDS011;53334;51.976;20.144;2022-09-27T06:46:40;21.15;;;14.20;;
36651;SDS011;53334;51.976;20.144;2022-09-27T06:49:59;22.27;;;13.38;;
36651;SDS011;53334;51.976;20.144;2022-09-27T06:52:35;19.23;;;14.77;;
36651;SDS011;53334;51.976;20.144;2022-09-27T06:55:09;16.63;;;14.75;;
36651;SDS011;53334;51.976;20.144;2022-09-27T06:57:44;18.02;;;14.43;;
36651;SDS011;53334;51.976;20.144;2022-09-27T07:00:36;26.67;;;15.48;;
36651;SDS011;53334;51.976;20.144;2022-09-27T07:03:33;17.25;;;14.27;;
36651;SDS011;53334;51.976;20.144;2022-09-27T07:06:32;15.35;;;13.13;;
36651;SDS011;53334;51.976;20.144;2022-09-27T07:09:19;19.63;;;14.52;;
36651;SDS011;53334;51.976;20.144;2022-09-27T07:11:54;18.48;;;14.15;;
36651;SDS011;53334;51.976;20.144;2022-09-27T07:14:29;16.45;;;13.77;;
36651;SDS011;53334;51.976;20.144;2022-09-27T07:17:06;21.70;;;14.40;;
36651;SDS011;53334;51.976;20.144;2022-09-27T07:19:44;19.35;;;13.52;;
36651;SDS011;53334;51.976;20.144;2022-09-27T07:22:18;18.17;;;13.85;;
36651;SDS011;53334;51.976;20.144;2022-09-27T07:24:58;20.88;;;12.98;;
36651;SDS011;53334;51.976;20.144;2022-09-27T07:27:32;15.02;;;13.27;;
36651;SDS011;53334;51.976;20.144;2022-09-27T07:30:13;13.75;;;12.15;;
36651;SDS011;53334;51.976;20.144;2022-09-27T07:32:49;17.60;;;12.15;;
36651;SDS011;53334;51.976;20.144;2022-09-27T07:35:30;15.13;;;12.40;;
36651;SDS011;53334;51.976;20.144;2022-09-27T07:38:05;17.35;;;11.82;;
36651;SDS011;53334;51.976;20.144;2022-09-27T07:40:41;20.48;;;11.40;;
36651;SDS011;53334;51.976;20.144;2022-09-27T07:43:16;12.10;;;10.63;;
36651;SDS011;53334;51.976;20.144;2022-09-27T07:45:54;18.88;;;12.13;;
36651;SDS011;53334;51.976;20.144;2022-09-27T07:48:50;13.90;;;11.80;;
36651;SDS011;53334;51.976;20.144;2022-09-27T07:51:43;12.50;;;10.80;;
36651;SDS011;53334;51.976;20.144;2022-09-27T07:54:34;14.45;;;11.90;;
36651;SDS011;53334;51.976;20.144;2022-09-27T07:57:16;13.85;;;11.13;;
36651;SDS011;53334;51.976;20.144;2022-09-27T07:59:57;13.93;;;11.05;;
36651;SDS011;53334;51.976;20.144;2022-09-27T08:02:33;14.35;;;10.63;;
36651;SDS011;53334;51.976;20.144;2022-09-27T08:05:08;16.48;;;11.88;;
36651;SDS011;53334;51.976;20.144;2022-09-27T08:07:42;19.20;;;15.05;;
36651;SDS011;53334;51.976;20.144;2022-09-27T08:10:17;23.95;;;16.35;;
36651;SDS011;53334;51.976;20.144;2022-09-27T08:12:51;27.23;;;20.15;;
36651;SDS011;53334;51.976;20.144;2022-09-27T08:15:26;36.47;;;24.83;;
36651;SDS011;53334;51.976;20.144;2022-09-27T08:18:02;38.20;;;26.48;;
36651;SDS011;53334;51.976;20.144;2022-09-27T08:21:06;36.67;;;25.50;;
36651;SDS011;53334;51.976;20.144;2022-09-27T08:23:50;31.67;;;23.92;;
36651;SDS011;53334;51.976;20.144;2022-09-27T08:26:36;39.30;;;24.10;;
36651;SDS011;53334;51.976;20.144;2022-09-27T08:29:23;40.63;;;23.70;;
36651;SDS011;53334;51.976;20.144;2022-09-27T08:31:59;37.47;;;24.27;;
36651;SDS011;53334;51.976;20.144;2022-09-27T08:34:35;42.10;;;24.58;;
36651;SDS011;53334;51.976;20.144;2022-09-27T08:37:09;34.10;;;25.05;;
36651;SDS011;53334;51.976;20.144;2022-09-27T08:39:43;32.47;;;25.98;;
36651;SDS011;53334;51.976;20.144;2022-09-27T08:42:24;30.95;;;25.63;;
36651;SDS011;53334;51.976;20.144;2022-09-27T08:45:08;30.83;;;23.98;;
36651;SDS011;53334;51.976;20.144;2022-09-27T08:47:49;28.23;;;21.17;;
36651;SDS011;53334;51.976;20.144;2022-09-27T08:50:29;27.65;;;22.70;;
36651;SDS011;53334;51.976;20.144;2022-09-27T08:53:15;25.42;;;20.60;;
36651;SDS011;53334;51.976;20.144;2022-09-27T08:55:53;22.42;;;19.92;;
36651;SDS011;53334;51.976;20.144;2022-09-27T08:58:38;23.77;;;19.80;;
36651;SDS011;53334;51.976;20.144;2022-09-27T09:01:28;22.88;;;17.55;;
36651;SDS011;53334;51.976;20.144;2022-09-27T09:04:16;22.10;;;19.08;;
36651;SDS011;53334;51.976;20.144;2022-09-27T09:07:11;21.42;;;18.02;;
36651;SDS011;53334;51.976;20.144;2022-09-27T09:09:56;22.02;;;17.73;;
36651;SDS011;53334;51.976;20.144;2022-09-27T09:12:47;22.27;;;17.20;;
36651;SDS011;53334;51.976;20.144;2022-09-27T09:15:40;20.45;;;17.27;;
36651;SDS011;53334;51.976;20.144;2022-09-27T09:18:43;18.20;;;16.13;;
36651;SDS011;53334;51.976;20.144;2022-09-27T09:21:44;21.50;;;17.33;;
36651;SDS011;53334;51.976;20.144;2022-09-27T09:24:35;18.88;;;16.95;;
36651;SDS011;53334;51.976;20.144;2022-09-27T09:27:24;18.55;;;15.80;;
36651;SDS011;53334;51.976;20.144;2022-09-27T09:30:17;19.63;;;17.27;;
36651;SDS011;53334;51.976;20.144;2022-09-27T09:33:00;20.42;;;17.65;;
36651;SDS011;53334;51.976;20.144;2022-09-27T09:35:48;17.50;;;15.80;;
36651;SDS011;53334;51.976;20.144;2022-09-27T09:38:33;19.45;;;17.35;;
36651;SDS011;53334;51.976;20.144;2022-09-27T09:41:16;19.55;;;16.85;;
36651;SDS011;53334;51.976;20.144;2022-09-27T09:43:55;18.05;;;16.15;;
36651;SDS011;53334;51.976;20.144;2022-09-27T09:46:34;21.17;;;15.27;;
36651;SDS011;53334;51.976;20.144;2022-09-27T09:49:18;17.50;;;15.67;;
36651;SDS011;53334;51.976;20.144;2022-09-27T09:51:58;17.50;;;15.65;;
36651;SDS011;53334;51.976;20.144;2022-09-27T09:54:40;17.55;;;15.70;;
36651;SDS011;53334;51.976;20.144;2022-09-27T09:57:21;16.52;;;14.63;;
36651;SDS011;53334;51.976;20.144;2022-09-27T09:59:59;16.95;;;15.13;;
36651;SDS011;53334;51.976;20.144;2022-09-27T10:02:46;16.00;;;14.32;;
36651;SDS011;53334;51.976;20.144;2022-09-27T10:05:25;15.27;;;13.27;;
36651;SDS011;53334;51.976;20.144;2022-09-27T10:08:06;15.45;;;12.55;;
36651;SDS011;53334;51.976;20.144;2022-09-27T10:10:49;19.65;;;13.80;;
36651;SDS011;53334;51.976;20.144;2022-09-27T10:13:43;15.63;;;13.95;;
36651;SDS011;53334;51.976;20.144;2022-09-27T10:16:20;15.82;;;13.55;;
36651;SDS011;53334;51.976;20.144;2022-09-27T10:18:56;14.77;;;13.35;;
36651;SDS011;53334;51.976;20.144;2022-09-27T10:21:34;14.85;;;13.27;;
36651;SDS011;53334;51.976;20.144;2022-09-27T10:24:17;16.52;;;14.02;;
36651;SDS011;53334;51.976;20.144;2022-09-27T10:26:56;15.45;;;13.27;;
36651;SDS011;53334;51.976;20.144;2022-09-27T10:29:36;15.35;;;13.00;;
36651;SDS011;53334;51.976;20.144;2022-09-27T10:32:23;14.88;;;12.50;;
36651;SDS011;53334;51.976;20.144;2022-09-27T10:35:32;13.05;;;11.65;;
36651;SDS011;53334;51.976;20.144;2022-09-27T10:38:21;13.32;;;11.93;;
36651;SDS011;53334;51.976;20.144;2022-09-27T10:41:16;13.43;;;12.07;;
36651;SDS011;53334;51.976;20.144;2022-09-27T10:44:18;13.50;;;12.10;;
36651;SDS011;53334;51.976;20.144;2022-09-27T10:47:15;12.93;;;11.55;;
36651;SDS011;53334;51.976;20.144;2022-09-27T10:50:17;15.47;;;11.70;;
36651;SDS011;53334;51.976;20.144;2022-09-27T10:53:29;12.30;;;11.00;;
36651;SDS011;53334;51.976;20.144;2022-09-27T10:56:14;12.43;;;11.00;;
36651;SDS011;53334;51.976;20.144;2022-09-27T10:58:55;13.52;;;12.13;;
36651;SDS011;53334;51.976;20.144;2022-09-27T11:01:38;12.10;;;10.18;;
36651;SDS011;53334;51.976;20.144;2022-09-27T11:04:25;12.07;;;10.38;;
36651;SDS011;53334;51.976;20.144;2022-09-27T11:07:14;14.05;;;11.38;;
36651;SDS011;53334;51.976;20.144;2022-09-27T11:10:18;10.57;;;9.48;;
36651;SDS011;53334;51.976;20.144;2022-09-27T11:13:07;11.82;;;10.60;;
36651;SDS011;53334;51.976;20.144;2022-09-27T11:15:53;10.68;;;9.57;;
36651;SDS011;53334;51.976;20.144;2022-09-27T11:18:39;11.77;;;9.52;;
36651;SDS011;53334;51.976;20.144;2022-09-27T11:24:06;14.35;;;10.80;;
36651;SDS011;53334;51.976;20.144;2022-09-27T11:26:59;12.70;;;9.95;;
36651;SDS011;53334;51.976;20.144;2022-09-27T11:29:45;13.40;;;10.50;;
36651;SDS011;53334;51.976;20.144;2022-09-27T11:33:04;11.50;;;9.52;;
36651;SDS011;53334;51.976;20.144;2022-09-27T11:35:55;13.38;;;8.85;;
36651;SDS011;53334;51.976;20.144;2022-09-27T11:41:29;12.98;;;11.05;;
36651;SDS011;53334;51.976;20.144;2022-09-27T11:44:23;11.52;;;9.82;;
36651;SDS011;53334;51.976;20.144;2022-09-27T11:47:10;13.05;;;9.70;;
36651;SDS011;53334;51.976;20.144;2022-09-27T11:52:55;11.25;;;8.88;;
36651;SDS011;53334;51.976;20.144;2022-09-27T11:55:42;11.95;;;9.95;;
36651;SDS011;53334;51.976;20.144;2022-09-27T11:58:23;34.38;;;10.15;;
36651;SDS011;53334;51.976;20.144;2022-09-27T12:01:13;11.25;;;8.90;;
36651;SDS011;53334;51.976;20.144;2022-09-27T12:06:57;13.93;;;9.07;;
36651;SDS011;53334;51.976;20.144;2022-09-27T12:09:39;10.00;;;9.00;;
36651;SDS011;53334;51.976;20.144;2022-09-27T12:12:19;11.10;;;9.15;;
36651;SDS011;53334;51.976;20.144;2022-09-27T12:14:56;10.77;;;8.88;;
36651;SDS011;53334;51.976;20.144;2022-09-27T12:17:39;11.90;;;8.20;;
36651;SDS011;53334;51.976;20.144;2022-09-27T12:20:18;8.50;;;7.70;;
36651;SDS011;53334;51.976;20.144;2022-09-27T12:22:56;10.57;;;8.38;;
36651;SDS011;53334;51.976;20.144;2022-09-27T12:25:51;10.75;;;9.20;;
36651;SDS011;53334;51.976;20.144;2022-09-27T12:28:33;10.65;;;9.55;;
36651;SDS011;53334;51.976;20.144;2022-09-27T12:31:15;9.40;;;8.50;;
36651;SDS011;53334;51.976;20.144;2022-09-27T12:34:05;12.10;;;8.88;;
36651;SDS011;53334;51.976;20.144;2022-09-27T12:36:52;11.02;;;9.00;;
36651;SDS011;53334;51.976;20.144;2022-09-27T12:39:36;10.45;;;8.60;;
36651;SDS011;53334;51.976;20.144;2022-09-27T12:42:24;10.55;;;9.50;;
36651;SDS011;53334;51.976;20.144;2022-09-27T12:45:11;9.70;;;8.77;;
36651;SDS011;53334;51.976;20.144;2022-09-27T12:47:50;9.93;;;9.02;;
36651;SDS011;53334;51.976;20.144;2022-09-27T12:50:36;9.73;;;8.68;;
36651;SDS011;53334;51.976;20.144;2022-09-27T12:53:15;10.27;;;9.20;;
36651;SDS011;53334;51.976;20.144;2022-09-27T12:59:16;14.93;;;10.15;;
36651;SDS011;53334;51.976;20.144;2022-09-27T13:02:19;11.38;;;9.60;;
36651;SDS011;53334;51.976;20.144;2022-09-27T13:05:41;10.38;;;9.40;;
36651;SDS011;53334;51.976;20.144;2022-09-27T13:08:35;10.68;;;9.52;;
36651;SDS011;53334;51.976;20.144;2022-09-27T13:11:28;11.52;;;10.38;;
36651;SDS011;53334;51.976;20.144;2022-09-27T13:14:14;11.90;;;9.25;;
36651;SDS011;53334;51.976;20.144;2022-09-27T13:16:52;12.25;;;10.60;;
36651;SDS011;53334;51.976;20.144;2022-09-27T13:19:39;12.02;;;10.82;;
36651;SDS011;53334;51.976;20.144;2022-09-27T13:22:34;11.52;;;10.32;;
36651;SDS011;53334;51.976;20.144;2022-09-27T13:35:11;12.88;;;10.57;;
36651;SDS011;53334;51.976;20.144;2022-09-27T13:37:55;11.48;;;10.38;;
36651;SDS011;53334;51.976;20.144;2022-09-27T13:40:42;12.90;;;11.18;;
36651;SDS011;53334;51.976;20.144;2022-09-27T13:46:39;12.85;;;10.45;;
36651;SDS011;53334;51.976;20.144;2022-09-27T13:49:26;11.90;;;10.70;;
36651;SDS011;53334;51.976;20.144;2022-09-27T13:52:18;12.20;;;11.00;;
36651;SDS011;53334;51.976;20.144;2022-09-27T13:58:25;14.73;;;10.65;;
36651;SDS011;53334;51.976;20.144;2022-09-27T14:01:39;13.65;;;11.25;;
36651;SDS011;53334;51.976;20.144;2022-09-27T14:04:19;11.82;;;10.70;;
36651;SDS011;53334;51.976;20.144;2022-09-27T14:06:58;15.23;;;12.68;;
36651;SDS011;53334;51.976;20.144;2022-09-27T14:09:37;16.02;;;12.00;;
36651;SDS011;53334;51.976;20.144;2022-09-27T14:12:34;13.55;;;11.73;;
36651;SDS011;53334;51.976;20.144;2022-09-27T14:15:16;22.48;;;12.60;;
36651;SDS011;53334;51.976;20.144;2022-09-27T14:17:53;19.27;;;11.93;;
36651;SDS011;53334;51.976;20.144;2022-09-27T14:20:34;12.90;;;11.60;;
36651;SDS011;53334;51.976;20.144;2022-09-27T14:23:21;57.88;;;36.83;;
36651;SDS011;53334;51.976;20.144;2022-09-27T14:26:00;82.88;;;61.17;;
36651;SDS011;53334;51.976;20.144;2022-09-27T14:28:39;54.03;;;38.88;;
36651;SDS011;53334;51.976;20.144;2022-09-27T14:31:25;78.60;;;54.15;;
36651;SDS011;53334;51.976;20.144;2022-09-27T14:34:06;112.07;;;83.60;;
36651;SDS011;53334;51.976;20.144;2022-09-27T14:36:43;89.03;;;62.17;;
36651;SDS011;53334;51.976;20.144;2022-09-27T14:39:42;74.95;;;54.40;;
36651;SDS011;53334;51.976;20.144;2022-09-27T14:42:35;90.15;;;64.32;;
36651;SDS011;53334;51.976;20.144;2022-09-27T14:45:13;74.00;;;61.30;;
36651;SDS011;53334;51.976;20.144;2022-09-27T14:47:53;75.65;;;57.08;;
36651;SDS011;53334;51.976;20.144;2022-09-27T14:50:27;75.68;;;55.53;;
36651;SDS011;53334;51.976;20.144;2022-09-27T14:55:54;58.03;;;45.17;;
36651;SDS011;53334;51.976;20.144;2022-09-27T14:58:30;54.88;;;44.20;;
36651;SDS011;53334;51.976;20.144;2022-09-27T15:01:18;55.90;;;39.05;;
36651;SDS011;53334;51.976;20.144;2022-09-27T15:04:02;47.88;;;38.67;;
36651;SDS011;53334;51.976;20.144;2022-09-27T15:06:38;46.25;;;36.03;;
36651;SDS011;53334;51.976;20.144;2022-09-27T15:09:15;52.13;;;34.95;;
36651;SDS011;53334;51.976;20.144;2022-09-27T15:11:51;49.38;;;33.80;;
36651;SDS011;53334;51.976;20.144;2022-09-27T15:14:29;25.75;;;21.67;;
36651;SDS011;53334;51.976;20.144;2022-09-27T15:17:05;36.47;;;26.88;;
36651;SDS011;53334;51.976;20.144;2022-09-27T15:19:59;37.30;;;28.60;;
36651;SDS011;53334;51.976;20.144;2022-09-27T15:22:40;37.13;;;28.20;;
36651;SDS011;53334;51.976;20.144;2022-09-27T15:25:20;34.92;;;26.67;;
36651;SDS011;53334;51.976;20.144;2022-09-27T15:28:11;36.17;;;26.70;;
36651;SDS011;53334;51.976;20.144;2022-09-27T15:30:52;36.58;;;24.35;;
36651;SDS011;53334;51.976;20.144;2022-09-27T15:33:28;25.65;;;20.80;;
36651;SDS011;53334;51.976;20.144;2022-09-27T15:36:05;28.52;;;23.02;;
36651;SDS011;53334;51.976;20.144;2022-09-27T15:38:41;23.42;;;20.48;;
36651;SDS011;53334;51.976;20.144;2022-09-27T15:41:18;28.88;;;20.55;;
36651;SDS011;53334;51.976;20.144;2022-09-27T15:43:53;26.17;;;20.17;;
36651;SDS011;53334;51.976;20.144;2022-09-27T15:46:32;31.85;;;21.05;;
36651;SDS011;53334;51.976;20.144;2022-09-27T15:49:19;25.48;;;20.08;;
36651;SDS011;53334;51.976;20.144;2022-09-27T15:51:55;25.27;;;18.98;;
36651;SDS011;53334;51.976;20.144;2022-09-27T15:54:30;21.13;;;18.00;;
36651;SDS011;53334;51.976;20.144;2022-09-27T15:57:08;24.88;;;19.50;;
36651;SDS011;53334;51.976;20.144;2022-09-27T15:59:44;25.50;;;18.95;;
36651;SDS011;53334;51.976;20.144;2022-09-27T16:02:19;21.38;;;17.35;;
36651;SDS011;53334;51.976;20.144;2022-09-27T16:04:53;29.73;;;18.70;;
36651;SDS011;53334;51.976;20.144;2022-09-27T16:07:27;26.17;;;18.23;;
36651;SDS011;53334;51.976;20.144;2022-09-27T16:10:01;25.60;;;18.80;;
36651;SDS011;53334;51.976;20.144;2022-09-27T16:12:42;21.52;;;16.48;;
36651;SDS011;53334;51.976;20.144;2022-09-27T16:15:16;27.80;;;17.55;;
36651;SDS011;53334;51.976;20.144;2022-09-27T16:17:52;20.15;;;15.75;;
36651;SDS011;53334;51.976;20.144;2022-09-27T16:20:27;24.08;;;17.60;;
36651;SDS011;53334;51.976;20.144;2022-09-27T16:23:03;20.77;;;17.05;;